BA8708 / G-LCYO 7700 Squawk Report (13th of December, 2019)

Aircraft E190 Reg No. G-LCYO Age N/A
Model Emb-190 Jet engines 2 First flight N/A
Registered 18-04-11 Rollout N/A Delivered 18-04-11
Construction No. 19000430 Line No. N/A Series 100SR
ADSHEX 40650B Airline name BA CityFlyer Owner British Airways
Airfield based London-City Airport~Gtr London~G First tracked 2017-07-13 07:54:00

Flight history for G-LCYO

Route Flight No Date Playback
Aix Les Bains (CMF) - Stansted (STN) BA2360 2020-01-18 17:51:00
Stansted (STN) - Aix Les Bains (CMF) BA2361 2020-01-18 12:10:00
Tegel (TXL) - Stansted (STN) BA2298 2020-01-17 22:13:00
City (LCY) - Tegel (TXL) BA8495 2020-01-17 20:08:00
Tegel (TXL) - City (LCY) BA8494 2020-01-17 18:44:00
City (LCY) - Tegel (TXL) BA8493 2020-01-17 14:46:00
Linate (LIN) - City (LCY) BA7302 2020-01-17 13:24:00
City (LCY) - Linate (LIN) BA7301 2020-01-17 08:17:00
Glasgow (GLA) - City (LCY) BA2215 2020-01-17 06:58:00
City (LCY) - Glasgow (GLA) BA8728 2020-01-16 19:05:00
Malaga (AGP) - City (LCY) BA8488 2020-01-16 18:26:00
City (LCY) - Malaga (AGP) BA8487 2020-01-16 11:32:00
Edinburgh (EDI) - City (LCY) BA8711 2020-01-16 09:43:00
City (LCY) - Edinburgh (EDI) BA2216 2020-01-15 12:15:00
Frankfurt Main (FRA) - City (LCY) BA8762 2020-01-15 11:38:00
City (LCY) - Frankfurt Main (FRA) BA8761 2020-01-15 08:15:00
???? N/A 2020-01-14 16:56:00
City (LCY) - Schiphol (AMS) BA8451 2020-01-14 09:20:00
Edinburgh (EDI) - City (LCY) BA8701 2020-01-14 08:53:00
City (LCY) - Edinburgh (EDI) BA8710 2020-01-13 21:31:00
Time Lat Lon Altitude Heading Speed Vertical Rate
2019-12-13 19:11:30 GMT 55.624481 -3.055458 13,200 353 318 -1020
2019-12-13 19:11:11 GMT 55.597000 -3.049923 13,675 356 356 -3300
2019-12-13 19:11:01 GMT 55.563072 -3.044951 14,000 354 365 -2820
2019-12-13 19:10:50 GMT 55.563072 -3.044951 14,300 352 356 -1260
2019-12-13 19:10:40 GMT 55.527508 -3.036523 14,825 353 365 -1080
2019-12-13 19:10:28 GMT 55.370476 -3.007665 15,325 354 388 0
2019-12-13 19:08:55 GMT 55.370476 -3.007665 17,000 352 372 0
2019-12-13 19:08:44 GMT 55.351696 -3.003136 17,000 350 367 0
2019-12-13 19:08:34 GMT 55.334560 -2.998619 17,000 347 390 0
2019-12-13 19:08:22 GMT 55.313915 -2.991453 17,000 350 358 -960
2019-12-13 19:08:10 GMT 55.294209 -2.984844 17,025 344 380 -1740
2019-12-13 19:07:57 GMT 55.250050 -2.962019 17,325 343 362 -1320
2019-12-13 19:07:44 GMT 55.250050 -2.962019 17,575 341 365 -3480
2019-12-13 19:07:33 GMT 55.232391 -2.951666 17,800 343 398 -1800
2019-12-13 19:07:22 GMT 55.214046 -2.941694 18,175 342 393 -1680
2019-12-13 19:07:12 GMT 55.196674 -2.932168 18,550 343 388 -1260
2019-12-13 19:07:01 GMT 55.177753 -2.922033 18,850 342 363 -2040
2019-12-13 19:06:50 GMT 55.159691 -2.912678 19,225 342 404 -1800
2019-12-13 19:06:39 GMT 55.140427 -2.901653 19,650 342 382 -3300
2019-12-13 19:06:28 GMT 55.121441 -2.891248 20,000 342 395 -1560
2019-12-13 19:06:18 GMT 55.103947 -2.881808 20,325 344 353 -1800
2019-12-13 19:06:08 GMT 55.086533 -2.872559 20,700 343 404 -2100
2019-12-13 19:05:56 GMT 55.066563 -2.862549 21,100 343 410 -2280
2019-12-13 19:05:44 GMT 55.044716 -2.851359 21,500 344 406 -2520
2019-12-13 19:05:34 GMT 55.010433 -2.835006 22,025 344 370 -1800
2019-12-13 19:05:24 GMT 55.010433 -2.835006 22,500 345 399 -4260
2019-12-13 19:05:14 GMT 54.992573 -2.826846 23,000 346 404 -8700
2019-12-13 19:05:04 GMT 54.973335 -2.818749 23,575 346 391 -2160
2019-12-13 19:04:52 GMT 54.951382 -2.809819 24,275 344 400 3600
2019-12-13 19:04:41 GMT 54.913124 -2.789693 25,400 339 377 -1800
2019-12-13 19:04:30 GMT 54.913124 -2.789693 24,875 338 393 -1560
2019-12-13 19:04:19 GMT 54.865875 -2.755622 25,400 336 399 -2280
2019-12-13 19:04:03 GMT 54.865875 -2.755622 25,800 338 388 -1620
2019-12-13 19:03:53 GMT 54.849209 -2.743543 26,150 338 378 -1080
2019-12-13 19:03:38 GMT 54.824860 -2.726562 26,600 338 360 -1680
2019-12-13 19:03:28 GMT 54.790577 -2.703456 26,950 339 394 -1380
2019-12-13 19:03:16 GMT 54.790577 -2.703456 27,150 339 339 -3000
2019-12-13 19:03:05 GMT 54.772526 -2.691444 27,500 333 374 -600
2019-12-13 19:02:54 GMT 54.736019 -2.667150 28,025 338 407 -1260
2019-12-13 19:02:42 GMT 54.736019 -2.667150 28,275 338 407 -2700
2019-12-13 19:02:30 GMT 54.715912 -2.653677 28,775 339 421 -3600
2019-12-13 19:02:20 GMT 54.697670 -2.641841 29,000 340 375 -1920
2019-12-13 19:02:09 GMT 54.661152 -2.617586 29,425 338 435 -4560
2019-12-13 19:01:59 GMT 54.661152 -2.617586 29,800 340 384 -2880
2019-12-13 19:01:49 GMT 54.644722 -2.607423 30,050 337 386 0
2019-12-13 19:01:38 GMT 54.625256 -2.595302 30,400 339 381 -1560
2019-12-13 19:01:25 GMT 54.603207 -2.580966 30,850 341 364 -1920
2019-12-13 19:01:14 GMT 54.584049 -2.569398 31,200 341 367 -1200
2019-12-13 19:01:03 GMT 54.565536 -2.558175 31,625 342 383 -1380
2019-12-13 19:00:49 GMT 54.542850 -2.544551 32,000 339 399 -1380
2019-12-13 19:00:39 GMT 54.508152 -2.520668 32,375 336 380 -8040
2019-12-13 19:00:28 GMT 54.508152 -2.520668 32,625 336 387 -4080
2019-12-13 19:00:18 GMT 54.492439 -2.508787 32,975 334 372 -660
2019-12-13 19:00:08 GMT 54.476910 -2.495843 33,250 336 349 -2460
2019-12-13 18:59:57 GMT 54.460670 -2.483435 33,525 340 399 -2100
2019-12-13 18:59:47 GMT 54.443707 -2.470540 33,850 335 387 -1200
2019-12-13 18:59:37 GMT 54.427414 -2.457752 34,075 339 340 -1680
2019-12-13 18:59:26 GMT 54.410446 -2.443509 34,450 334 368 -1380
2019-12-13 18:59:13 GMT 54.389286 -2.426135 34,800 333 385 -2460
2019-12-13 18:59:03 GMT 54.372986 -2.412166 35,150 333 383 -660
2019-12-13 18:58:52 GMT 54.355305 -2.396758 35,450 333 396 -1080
2019-12-13 18:58:42 GMT 54.339455 -2.385046 35,625 328 373 -1020
2019-12-13 18:58:31 GMT 54.322109 -2.365665 35,900 336 401 -120
2019-12-13 18:58:21 GMT 54.306400 -2.353560 36,000 331 420 0
2019-12-13 18:58:10 GMT 54.286869 -2.335350 36,000 332 399 0
2019-12-13 18:57:59 GMT 54.269451 -2.319949 36,000 332 399 0
2019-12-13 18:57:48 GMT 54.250610 -2.307785 36,000 325 408 0
2019-12-13 18:57:38 GMT 54.234993 -2.289550 36,000 332 390 0
2019-12-13 18:57:27 GMT 54.217842 -2.273960 36,000 332 386 0
2019-12-13 18:57:15 GMT 54.198128 -2.257070 36,000 328 383 0
2019-12-13 18:57:05 GMT 54.181896 -2.243917 36,000 345 365 0
2019-12-13 18:56:54 GMT 54.159107 -2.228012 36,000 328 332 0
2019-12-13 18:56:43 GMT 54.128101 -2.197946 36,000 334 390 0
2019-12-13 18:56:32 GMT 54.128101 -2.197946 36,000 321 347 0
2019-12-13 18:56:21 GMT 54.111412 -2.183709 36,000 334 425 0
2019-12-13 18:56:11 GMT 54.094208 -2.169054 36,000 334 379 0
2019-12-13 18:56:01 GMT 54.078289 -2.156330 36,000 331 353 0
2019-12-13 18:55:51 GMT 54.062443 -2.142608 36,000 338 490 0
2019-12-13 18:55:40 GMT 54.039307 -2.126718 36,000 326 316 0
2019-12-13 18:55:30 GMT 54.027046 -2.113011 36,000 332 397 111960
2019-12-13 18:55:19 GMT 54.005657 -2.098157 36,000 326 333 -98820
2019-12-13 18:55:08 GMT 53.991558 -2.082034 36,000 331 375 0
2019-12-13 18:54:56 GMT 53.972736 -2.066350 36,000 334 385 0
2019-12-13 18:54:46 GMT 53.956654 -2.053072 36,000 335 415 0
2019-12-13 18:54:36 GMT 53.938988 -2.036391 36,000 334 364 0
2019-12-13 18:54:26 GMT 53.923817 -2.023949 36,000 339 467 0
2019-12-13 18:54:16 GMT 53.903519 -2.011242 36,000 320 310 0
2019-12-13 18:54:04 GMT 53.887573 -1.999762 36,000 327 455 0
2019-12-13 18:53:54 GMT 53.853127 -1.964462 36,000 339 441 0
2019-12-13 18:53:44 GMT 53.853127 -1.964462 36,000 326 371 0
2019-12-13 18:53:33 GMT 53.837395 -1.946769 36,000 330 335 0
2019-12-13 18:53:22 GMT 53.822449 -1.934004 36,000 331 418 0
2019-12-13 18:53:11 GMT 53.786472 -1.900118 36,000 326 452 0
2019-12-13 18:53:01 GMT 53.786472 -1.900118 36,000 335 410 0
2019-12-13 18:52:50 GMT 53.769188 -1.886186 36,000 325 386 0
2019-12-13 18:52:40 GMT 53.754539 -1.868902 36,000 338 430 0
2019-12-13 18:52:29 GMT 53.737694 -1.855950 36,000 322 309 0
2019-12-13 18:52:19 GMT 53.721725 -1.842402 36,000 338 424 0
2019-12-13 18:52:09 GMT 53.704594 -1.826180 36,000 332 371 0
2019-12-13 18:51:58 GMT 53.686623 -1.811734 36,000 329 385 0
2019-12-13 18:51:46 GMT 53.668224 -1.793274 36,000 328 297 0
2019-12-13 18:51:35 GMT 53.651466 -1.776846 36,000 331 396 0
2019-12-13 18:51:25 GMT 53.638920 -1.763120 36,000 338 434 0
2019-12-13 18:51:15 GMT 53.624050 -1.750949 36,000 328 344 0
2019-12-13 18:51:04 GMT 53.606354 -1.732349 36,000 335 365 0
2019-12-13 18:50:52 GMT 53.586929 -1.714562 36,000 336 343 0
2019-12-13 18:50:42 GMT 53.570698 -1.700790 36,000 337 337 0
2019-12-13 18:50:32 GMT 53.555092 -1.689781 36,000 327 373 0
2019-12-13 18:50:22 GMT 53.538586 -1.673214 36,000 332 389 0
2019-12-13 18:50:11 GMT 53.522224 -1.656675 36,000 334 362 0
2019-12-13 18:49:59 GMT 53.502316 -1.640048 36,000 332 339 0
2019-12-13 18:49:49 GMT 53.486553 -1.625130 36,000 333 347 0
2019-12-13 18:49:39 GMT 53.473423 -1.610131 36,000 335 400 0
2019-12-13 18:49:27 GMT 53.453720 -1.595008 36,000 333 410 0
2019-12-13 18:49:16 GMT 53.436874 -1.576306 36,000 333 435 0
2019-12-13 18:49:06 GMT 53.420906 -1.562947 36,000 330 371 0
2019-12-13 18:48:56 GMT 53.405926 -1.548885 36,000 334 374 0
2019-12-13 18:48:45 GMT 53.388744 -1.535055 36,000 332 374 0
2019-12-13 18:48:34 GMT 53.372780 -1.520766 36,000 332 408 0
2019-12-13 18:48:24 GMT 53.356304 -1.504861 36,000 329 374 0
2019-12-13 18:48:13 GMT 53.322891 -1.475780 36,000 321 353 0
2019-12-13 18:48:02 GMT 53.307552 -1.459929 36,000 326 387 0
2019-12-13 18:47:52 GMT 53.307552 -1.459929 36,000 337 383 0
2019-12-13 18:47:40 GMT 53.289665 -1.444953 36,000 333 390 0
2019-12-13 18:47:30 GMT 53.273514 -1.431302 36,000 335 372 0
2019-12-13 18:47:20 GMT 53.259052 -1.418345 36,000 331 385 0
2019-12-13 18:47:10 GMT 53.242607 -1.401937 36,000 336 336 0
2019-12-13 18:47:00 GMT 53.226810 -1.388057 36,000 332 364 0
2019-12-13 18:46:49 GMT 53.211067 -1.375267 36,000 331 397 0
2019-12-13 18:46:39 GMT 53.194263 -1.361573 36,000 329 355 0
2019-12-13 18:46:29 GMT 53.164436 -1.334024 36,000 334 376 0
2019-12-13 18:46:19 GMT 53.164436 -1.334024 36,000 336 363 0
2019-12-13 18:46:06 GMT 53.144493 -1.316013 36,000 328 417 0
2019-12-13 18:45:56 GMT 53.129654 -1.300939 36,000 338 383 0
2019-12-13 18:45:46 GMT 53.114712 -1.288710 36,000 333 384 0
2019-12-13 18:45:36 GMT 53.099148 -1.275972 36,000 323 380 0
2019-12-13 18:45:25 GMT 53.083336 -1.261294 36,000 324 377 0
2019-12-13 18:45:15 GMT 53.067570 -1.247266 36,000 327 352 0
2019-12-13 18:45:05 GMT 53.053165 -1.234935 36,000 341 368 0
2019-12-13 18:44:55 GMT 53.038158 -1.220740 36,000 331 408 0
2019-12-13 18:44:44 GMT 53.021503 -1.206290 36,000 332 329 -60
2019-12-13 18:44:33 GMT 53.005222 -1.192483 36,000 332 359 60
2019-12-13 18:44:22 GMT 52.988285 -1.178934 36,000 327 323 900
2019-12-13 18:44:11 GMT 52.973675 -1.164435 35,975 330 318 1740
2019-12-13 18:44:01 GMT 52.959362 -1.151016 35,825 331 356 1500
2019-12-13 18:43:51 GMT 52.945553 -1.138781 35,525 334 369 1380
2019-12-13 18:43:40 GMT 52.929096 -1.125170 35,150 333 352 1200
2019-12-13 18:43:27 GMT 52.911190 -1.109959 34,975 334 354 600
2019-12-13 18:43:16 GMT 52.893333 -1.095272 34,825 326 307 1260
2019-12-13 18:43:06 GMT 52.865570 -1.071511 34,725 336 344 600
2019-12-13 18:42:56 GMT 52.865570 -1.071511 34,600 329 272 1200
2019-12-13 18:42:46 GMT 52.851501 -1.058214 34,375 325 341 1080
2019-12-13 18:42:36 GMT 52.841118 -1.042992 34,150 339 373 780
2019-12-13 18:42:25 GMT 52.823345 -1.031877 34,025 331 373 660
2019-12-13 18:42:14 GMT 52.805748 -1.018070 33,800 324 317 1080
2019-12-13 18:42:04 GMT 52.792465 -1.005733 33,625 327 293 0
2019-12-13 18:41:54 GMT 52.779739 -0.992763 33,475 333 336 1020
2019-12-13 18:41:44 GMT 52.765831 -0.981122 33,375 329 329 0
2019-12-13 18:41:34 GMT 52.734295 -0.952768 33,250 311 257 960
2019-12-13 18:41:21 GMT 52.734295 -0.952768 33,075 334 311 600
2019-12-13 18:41:11 GMT 52.720795 -0.941424 32,975 328 315 660
2019-12-13 18:41:00 GMT 52.706455 -0.927278 32,900 338 329 960
2019-12-13 18:40:50 GMT 52.693348 -0.916820 32,725 332 342 360
2019-12-13 18:40:40 GMT 52.666676 -0.893557 32,575 337 385 840
2019-12-13 18:40:30 GMT 52.666676 -0.893557 32,500 331 294 1860
2019-12-13 18:40:20 GMT 52.654186 -0.881755 32,350 334 350 900
2019-12-13 18:40:09 GMT 52.639263 -0.869591 32,250 331 305 240
2019-12-13 18:39:59 GMT 52.626541 -0.858200 32,100 331 315 1260
2019-12-13 18:39:49 GMT 52.612968 -0.846585 31,975 324 298 780
2019-12-13 18:39:36 GMT 52.599117 -0.829693 31,775 328 315 960
2019-12-13 18:39:26 GMT 52.586609 -0.817264 31,600 328 311 1380
2019-12-13 18:39:16 GMT 52.574902 -0.804541 31,425 329 299 1560
2019-12-13 18:39:04 GMT 52.560181 -0.789160 31,050 319 289 1320
2019-12-13 18:38:54 GMT 52.537010 -0.764526 30,675 329 289 1200
2019-12-13 18:38:44 GMT 52.537010 -0.764526 30,625 327 310 1320
2019-12-13 18:38:34 GMT 52.524887 -0.751952 30,300 330 310 2160
2019-12-13 18:38:23 GMT 52.512115 -0.737677 30,125 325 312 960
2019-12-13 18:38:13 GMT 52.500229 -0.724792 29,850 330 293 960
2019-12-13 18:38:03 GMT 52.488319 -0.713121 29,750 326 295 780
2019-12-13 18:37:52 GMT 52.464249 -0.687113 29,525 325 282 1500
2019-12-13 18:37:42 GMT 52.464249 -0.687113 29,350 325 276 1500
2019-12-13 18:37:31 GMT 52.451881 -0.673736 29,075 325 309 1320
2019-12-13 18:37:21 GMT 52.428745 -0.648840 28,600 321 276 1380
2019-12-13 18:37:11 GMT 52.428745 -0.648840 28,600 328 332 1620
2019-12-13 18:37:01 GMT 52.417088 -0.637832 28,275 320 302 1920
2019-12-13 18:36:51 GMT 52.403767 -0.621072 27,875 335 237 2100
2019-12-13 18:36:41 GMT 52.393784 -0.613626 27,650 331 300 -240
2019-12-13 18:36:31 GMT 52.381008 -0.603205 27,400 337 300 1380
2019-12-13 18:36:20 GMT 52.366554 -0.594670 27,175 336 306 1740
2019-12-13 18:36:10 GMT 52.353569 -0.584806 26,850 337 305 1800
2019-12-13 18:35:59 GMT 52.324982 -0.566162 26,250 338 302 1680
2019-12-13 18:35:48 GMT 52.324982 -0.566162 26,200 338 306 3300
2019-12-13 18:35:37 GMT 52.311863 -0.558435 25,875 337 272 1740
2019-12-13 18:35:27 GMT 52.298489 -0.547513 25,575 336 283 1320
2019-12-13 18:35:17 GMT 52.285412 -0.540049 25,250 338 302 3000
2019-12-13 18:35:07 GMT 52.272362 -0.531743 25,025 339 283 1560
2019-12-13 18:34:56 GMT 52.246048 -0.515056 24,675 339 294 3000
2019-12-13 18:34:46 GMT 52.246048 -0.515056 24,275 336 321 1620
2019-12-13 18:34:36 GMT 52.232285 -0.505031 23,800 341 277 2220
2019-12-13 18:34:26 GMT 52.220333 -0.498163 23,425 337 300 2100
2019-12-13 18:34:16 GMT 52.207504 -0.488819 23,075 334 322 0
2019-12-13 18:34:06 GMT 52.194862 -0.480355 22,700 337 289 4740
2019-12-13 18:33:56 GMT 52.182465 -0.471443 22,175 336 277 2700
2019-12-13 18:33:46 GMT 52.169724 -0.463030 21,975 334 281 3000
2019-12-13 18:33:36 GMT 52.157543 -0.455063 21,550 326 286 3000
2019-12-13 18:33:26 GMT 52.132587 -0.436991 20,800 334 319 2700
2019-12-13 18:33:16 GMT 52.132587 -0.436991 20,450 313 230 2400
2019-12-13 18:33:05 GMT 52.122086 -0.424151 20,000 349 408 2820
2019-12-13 18:32:55 GMT 52.105362 -0.417656 19,500 331 307 1800
2019-12-13 18:32:44 GMT 52.091888 -0.407630 18,975 338 298 2460
2019-12-13 18:32:32 GMT 52.076920 -0.396760 18,425 328 301 3600
2019-12-13 18:32:22 GMT 52.064846 -0.387862 17,850 336 282 2460
2019-12-13 18:32:12 GMT 52.052822 -0.379524 17,425 334 311 3000
2019-12-13 18:32:02 GMT 52.027645 -0.361943 16,700 337 299 1800
2019-12-13 18:31:52 GMT 52.027645 -0.361943 16,200 331 291 1800
2019-12-13 18:31:41 GMT 52.003887 -0.343503 15,625 334 262 2400
2019-12-13 18:31:31 GMT 52.003887 -0.343503 15,325 334 283 1980
2019-12-13 18:31:21 GMT 51.992104 -0.334166 14,925 332 312 1500
2019-12-13 18:31:11 GMT 51.981506 -0.324265 14,500 334 311 2760
2019-12-13 18:31:00 GMT 51.967506 -0.313642 14,075 334 271 2340
2019-12-13 18:30:50 GMT 51.956314 -0.303731 13,725 335 252 3120
2019-12-13 18:30:40 GMT 51.934982 -0.285818 13,250 330 287 2760
2019-12-13 18:30:30 GMT 51.934982 -0.285818 12,575 328 270 3900
2019-12-13 18:30:20 GMT 51.924301 -0.275223 12,100 323 281 4500
2019-12-13 18:30:09 GMT 51.902164 -0.252196 11,450 329 271 3000
2019-12-13 18:29:59 GMT 51.890022 -0.242540 10,975 338 261 2040
2019-12-13 18:29:48 GMT 51.890022 -0.242540 10,650 319 263 3120
2019-12-13 18:29:38 GMT 51.880489 -0.231449 10,375 326 312 2100
2019-12-13 18:29:28 GMT 51.870663 -0.222298 9,850 330 256 2100
2019-12-13 18:29:18 GMT 51.860981 -0.212295 9,500 326 285 2040
2019-12-13 18:29:07 GMT 51.847752 -0.200172 9,025 330 244 2340
2019-12-13 18:28:57 GMT 51.837334 -0.190000 8,725 329 279 1860
2019-12-13 18:28:47 GMT 51.826553 -0.179666 8,175 328 245 2520
2019-12-13 18:28:37 GMT 51.816055 -0.171641 7,750 316 317 2400
2019-12-13 18:28:26 GMT 51.804707 -0.159130 7,325 345 340 2040
2019-12-13 18:28:16 GMT 51.794109 -0.149622 6,900 323 254 1920
2019-12-13 18:28:05 GMT 51.783073 -0.138281 6,475 1 220 1200
2019-12-13 18:27:55 GMT 51.773834 -0.129362 6,125 329 172 1920
2019-12-13 18:27:44 GMT 51.761646 -0.119641 5,850 314 242 720
2019-12-13 18:27:34 GMT 51.752281 -0.109295 5,700 332 234 720
2019-12-13 18:27:24 GMT 51.732647 -0.090899 5,575 330 259 1860
2019-12-13 18:27:14 GMT 51.732647 -0.090899 5,450 2 273 0
2019-12-13 18:27:04 GMT 51.724098 -0.080953 5,250 330 283 900
2019-12-13 18:26:53 GMT 51.712872 -0.070138 5,075 258 197 960
2019-12-13 18:26:43 GMT 51.704365 -0.061103 4,900 329 291 2040
2019-12-13 18:26:32 GMT 51.694099 -0.050984 4,675 327 251 420
2019-12-13 18:26:21 GMT 51.685150 -0.041795 4,475 326 217 420
2019-12-13 18:26:11 GMT 51.670414 -0.027683 4,175 336 159 600
2019-12-13 18:26:01 GMT 51.670414 -0.027683 4,050 345 203 720
2019-12-13 18:25:51 GMT 51.663612 -0.020608 3,925 324 164 0
2019-12-13 18:25:41 GMT 51.656116 -0.012685 3,800 329 185 0
2019-12-13 18:25:30 GMT 51.648811 -0.005327 3,800 299 129 0
2019-12-13 18:25:19 GMT 51.640526 0.002568 3,800 341 174 0
2019-12-13 18:25:08 GMT 51.632935 0.011012 3,800 324 179 0
2019-12-13 18:24:58 GMT 51.626106 0.018231 3,800 322 186 0
2019-12-13 18:24:47 GMT 51.618862 0.026456 3,800 294 163 0
2019-12-13 18:24:31 GMT 51.607456 0.038406 3,800 3 167 0
2019-12-13 18:24:21 GMT 51.598339 0.039480 3,800 354 183 0
2019-12-13 18:24:11 GMT 51.589050 0.034424 3,800 36 233 0
2019-12-13 18:24:01 GMT 51.574051 0.009062 3,800 48 197 0
2019-12-13 18:23:51 GMT 51.574051 0.009062 3,800 45 205 0
2019-12-13 18:23:40 GMT 51.565910 -0.005820 3,800 37 181 0
2019-12-13 18:23:29 GMT 51.556248 -0.015621 3,800 23 209 0

Making use of Plane Finder data

You are free to use the raw flight data, aircraft information and images provided in this report for your own purposes provided the data is correctly attributed to Plane Finder. We ask that you please credit Plane Finder and link to planefinder.net in close proximity to the content.

Optionally one of the following logos (no smaller then 150x24px) can be used and must link to planefinder.net

Embedding the Plane Finder map

You are welcome to embed the Plane Finder playback map on your website to offer visitors a more interactive experience. We suggest using the following HTML code:

<iframe src="//planefinder.net/data/report/BA8708-G-LCYO-7700-squawk-2019-12-13/map" width="800" height="600" seamless="seamless"></iframe>

Where our data comes from

Plane Finder has a global network of data feeds and antenna radars that receive data broadcast directly from aircraft. The primary technologies used are ADS-B and MLAT. We also show feeds from the FAA and a FLARM glider feed.

Click here to find out more about the Plane Finder network.

How we collect our data